Terminal Aerodrome Forecast
Issued by NWS

Home | Current Version | Previous Version | Text Only | Print | Product List | Glossary On
Versions: 1 2 3 4 5 6 7 8 9 10 11 12 13 14 15 16 17 18
000
FTUS43 KIND 240500
TAFHUF
TAF
KHUF 240520Z 2406/2506 09004KT P6SM SCT100 BKN250
     FM240800 12003KT P6SM BKN100
     FM241400 17012G20KT P6SM BKN040=

USA.gov is the U.S. government's official web portal to all federal, state and local government web resources and services.